Terminal Aerodrome Forecast
Issued by NWS

Home | Current Version | Previous Version | Text Only | Print | Product List | Glossary On
Versions: 1 2 3 4 5 6 7 8 9 10 11 12 13 14 15 16 17 18 19 20 21 22
065
FTUS44 KEWX 211740
TAFSSF
TAF
KSSF 211740Z 2118/2218 18010KT P6SM SCT040
     FM220000 15009KT P6SM FEW050
     FM220800 17006KT P6SM BKN020
     FM221100 23005KT 4SM TSRA BKN015CB
     FM221300 32010KT P6SM SCT040
     FM221500 36015G25KT P6SM FEW050=

USA.gov is the U.S. government's official web portal to all federal, state and local government web resources and services.